Time;durP1;ratioP1;P1;durP2;ratioP2;P2;SDS_P1;SDS_P2;PMS_P1;PMS_P2;Temp;Humidity;BMP_temperature;BMP_pressure;BME280_temperature;BME280_humidity;BME280_pressure;Samples;Min_cycle;Max_cycle;Signal;HPM_P1;HPM_P2
2024/01/22 00:02:11;;;;;;;5.93;3.40;;;8.70;96.30;;;;;;4991403;28;20125;-68
2024/01/22 00:04:37;;;;;;;6.13;2.83;;;8.80;96.30;;;;;;4991148;28;20029;-67
2024/01/22 00:07:03;;;;;;;7.55;3.30;;;8.90;96.20;;;;;;4992463;28;20546;-68
2024/01/22 00:09:28;;;;;;;4.72;2.80;;;8.90;96.30;;;;;;4993149;28;20489;-68
2024/01/22 00:11:54;;;;;;;5.53;2.80;;;8.90;96.00;;;;;;4987904;28;20040;-67
2024/01/22 00:14:19;;;;;;;5.60;2.80;;;8.90;95.80;;;;;;4993163;28;20022;-66
2024/01/22 00:16:45;;;;;;;6.45;3.63;;;9.00;95.80;;;;;;5000012;28;20399;-67
2024/01/22 00:19:11;;;;;;;6.43;3.20;;;9.00;95.70;;;;;;4997841;28;20384;-69
2024/01/22 00:21:42;;;;;;;4.22;2.67;;;9.10;95.60;;;;;;4992099;28;20045;-68
2024/01/22 00:24:09;;;;;;;3.85;2.80;;;9.10;95.50;;;;;;4992319;28;20033;-68
2024/01/22 00:26:34;;;;;;;6.13;2.70;;;9.10;95.50;;;;;;4990925;28;20077;-67
2024/01/22 00:29:00;;;;;;;4.72;2.85;;;9.10;95.40;;;;;;4990415;28;20026;-68
2024/01/22 00:31:25;;;;;;;6.90;3.13;;;9.20;95.30;;;;;;4999159;28;20034;-69
2024/01/22 00:33:51;;;;;;;4.80;2.95;;;9.20;95.30;;;;;;4995456;28;20042;-67
2024/01/22 00:36:16;;;;;;;5.85;2.92;;;9.20;95.20;;;;;;4991881;28;20053;-67
2024/01/22 00:38:42;;;;;;;4.78;2.83;;;9.20;95.10;;;;;;4997752;28;20026;-68
2024/01/22 00:41:09;;;;;;;4.25;2.70;;;9.30;95.10;;;;;;4993629;28;20034;-68
2024/01/22 00:43:35;;;;;;;4.90;2.95;;;9.30;95.00;;;;;;4998043;28;20106;-68
2024/01/22 00:46:01;;;;;;;4.07;2.95;;;9.30;94.90;;;;;;4995022;28;20046;-68
2024/01/22 00:48:27;;;;;;;7.72;3.40;;;9.30;94.90;;;;;;4996316;28;20227;-68
2024/01/22 00:50:53;;;;;;;4.22;2.78;;;9.30;94.80;;;;;;5002152;28;20022;-67
2024/01/22 00:53:18;;;;;;;5.25;2.85;;;9.40;94.80;;;;;;4999426;28;20029;-67
2024/01/22 00:55:44;;;;;;;4.88;2.95;;;9.40;94.80;;;;;;4998565;28;20030;-67
2024/01/22 00:58:09;;;;;;;7.20;3.00;;;9.40;94.70;;;;;;5003347;28;20022;-67
2024/01/22 01:00:35;;;;;;;4.93;2.50;;;9.40;94.60;;;;;;4994004;28;20027;-67
2024/01/22 01:03:00;;;;;;;4.93;2.50;;;9.40;94.60;;;;;;4989361;28;20037;-66
2024/01/22 01:05:26;;;;;;;5.75;2.95;;;9.40;94.50;;;;;;4996287;28;20128;-65
2024/01/22 01:07:51;;;;;;;5.70;2.67;;;9.50;94.50;;;;;;4996543;28;20027;-65
2024/01/22 01:10:17;;;;;;;6.28;2.90;;;9.50;94.40;;;;;;4997542;28;20152;-66
2024/01/22 01:12:43;;;;;;;4.43;2.70;;;9.50;94.40;;;;;;4997789;28;20511;-66
2024/01/22 01:15:09;;;;;;;4.95;3.03;;;9.50;94.30;;;;;;4995211;28;20436;-66
2024/01/22 01:17:36;;;;;;;5.05;2.80;;;9.60;94.30;;;;;;4991587;28;20029;-67
2024/01/22 01:20:03;;;;;;;5.22;2.30;;;9.60;94.20;;;;;;4988774;28;20089;-66
2024/01/22 01:22:32;;;;;;;5.55;2.30;;;9.70;94.10;;;;;;4995818;28;20022;-66
2024/01/22 01:24:57;;;;;;;5.25;2.78;;;9.70;94.10;;;;;;4997723;28;20022;-66
2024/01/22 01:27:23;;;;;;;4.68;2.47;;;9.70;94.00;;;;;;4991565;28;20039;-66
2024/01/22 01:29:48;;;;;;;4.28;2.65;;;9.70;93.90;;;;;;4991813;28;20026;-67
2024/01/22 01:32:14;;;;;;;5.18;2.80;;;9.70;93.90;;;;;;4998990;28;20034;-68
2024/01/22 01:34:40;;;;;;;3.90;2.72;;;9.80;93.90;;;;;;4999845;28;20058;-65
2024/01/22 01:37:05;;;;;;;3.95;2.40;;;9.80;93.80;;;;;;4998902;28;20030;-66
2024/01/22 01:39:31;;;;;;;4.70;2.53;;;9.80;93.80;;;;;;5001298;28;20108;-66
2024/01/22 01:41:56;;;;;;;3.78;2.35;;;9.80;93.70;;;;;;4994877;28;20030;-68
2024/01/22 01:44:42;;;;;;;5.38;2.60;;;9.90;93.60;;;;;;4993298;28;20094;-67
2024/01/22 01:47:08;;;;;;;5.80;3.05;;;9.90;93.50;;;;;;4999818;28;21615;-66
2024/01/22 01:49:34;;;;;;;4.82;2.40;;;9.90;93.50;;;;;;4992849;28;20071;-67
2024/01/22 01:52:00;;;;;;;4.93;2.90;;;9.90;93.60;;;;;;4994447;28;20072;-67
2024/01/22 01:54:28;;;;;;;4.25;2.60;;;10.00;93.60;;;;;;4992869;28;20026;-67
2024/01/22 01:56:54;;;;;;;3.03;2.00;;;10.00;93.70;;;;;;4987188;28;20057;-67
2024/01/22 01:59:20;;;;;;;3.75;2.42;;;10.00;93.70;;;;;;4989399;28;20396;-66
2024/01/22 02:01:45;;;;;;;4.72;2.92;;;10.00;93.70;;;;;;4992345;28;20027;-67
2024/01/22 02:04:11;;;;;;;4.63;2.40;;;10.00;93.70;;;;;;4997420;28;20085;-67
2024/01/22 02:06:36;;;;;;;4.47;2.80;;;10.00;93.80;;;;;;4997228;28;20027;-66
2024/01/22 02:09:02;;;;;;;3.17;2.22;;;10.00;93.90;;;;;;4997827;28;20472;-67
2024/01/22 02:11:28;;;;;;;5.15;2.75;;;10.00;93.90;;;;;;4995617;28;20038;-68
2024/01/22 02:13:54;;;;;;;4.18;2.10;;;10.00;93.90;;;;;;4989335;28;20080;-67
2024/01/22 02:16:19;;;;;;;3.88;2.25;;;10.10;94.00;;;;;;4994236;28;20025;-67
2024/01/22 02:18:45;;;;;;;4.63;2.45;;;10.00;93.90;;;;;;4997021;28;20038;-68
2024/01/22 02:21:11;;;;;;;3.63;2.38;;;10.10;94.00;;;;;;4992310;28;20026;-66
2024/01/22 02:23:36;;;;;;;4.07;2.28;;;10.10;93.90;;;;;;4993948;28;20018;-67
2024/01/22 02:26:02;;;;;;;5.00;2.33;;;10.10;93.90;;;;;;4993495;28;20026;-67
2024/01/22 02:28:28;;;;;;;3.08;1.98;;;10.20;93.90;;;;;;4993641;28;20095;-67
2024/01/22 02:30:54;;;;;;;3.85;2.17;;;10.20;93.80;;;;;;4987990;28;20042;-68
2024/01/22 02:33:19;;;;;;;3.00;2.10;;;10.20;93.80;;;;;;4989604;28;20026;-69
2024/01/22 02:35:45;;;;;;;3.03;1.90;;;10.20;93.80;;;;;;4991401;28;20045;-68
2024/01/22 02:38:11;;;;;;;5.85;2.20;;;10.30;93.70;;;;;;4997273;28;20045;-67
2024/01/22 02:40:36;;;;;;;3.88;2.00;;;10.30;93.60;;;;;;4997815;28;20160;-66
2024/01/22 02:43:02;;;;;;;2.20;1.70;;;10.40;93.60;;;;;;4994125;28;20026;-68
2024/01/22 02:45:27;;;;;;;3.80;2.20;;;10.30;93.40;;;;;;4997355;28;20120;-68
2024/01/22 02:47:53;;;;;;;3.03;2.20;;;10.40;93.50;;;;;;4989666;28;20039;-67
2024/01/22 02:50:18;;;;;;;3.58;2.20;;;10.40;93.40;;;;;;4994877;28;20041;-68
2024/01/22 02:52:44;;;;;;;4.63;1.90;;;10.40;93.60;;;;;;4995071;28;20456;-67
2024/01/22 02:55:09;;;;;;;3.08;1.98;;;10.40;93.60;;;;;;4997833;28;20405;-69
2024/01/22 02:57:35;;;;;;;3.25;1.80;;;10.40;93.80;;;;;;4995062;28;20060;-67
2024/01/22 03:00:01;;;;;;;3.25;1.98;;;10.40;93.90;;;;;;4994460;28;20081;-67
2024/01/22 03:02:27;;;;;;;2.25;1.90;;;10.30;94.10;;;;;;4990146;28;20027;-67
2024/01/22 03:04:52;;;;;;;3.50;2.00;;;10.30;94.30;;;;;;4994309;28;20452;-68
2024/01/22 03:07:18;;;;;;;3.95;2.17;;;10.30;94.50;;;;;;4998808;28;20108;-68
2024/01/22 03:09:43;;;;;;;4.28;1.90;;;10.30;94.70;;;;;;4991709;28;20025;-67
2024/01/22 03:12:09;;;;;;;3.38;2.00;;;10.20;95.00;;;;;;4997919;28;20018;-66
2024/01/22 03:14:34;;;;;;;2.92;1.90;;;10.20;95.20;;;;;;4994541;28;20022;-68
2024/01/22 03:17:00;;;;;;;3.40;2.00;;;10.20;95.40;;;;;;4998477;28;20100;-68
2024/01/22 03:19:26;;;;;;;4.22;1.80;;;10.30;95.70;;;;;;4990443;28;20085;-66
2024/01/22 03:21:51;;;;;;;2.65;1.73;;;10.20;96.00;;;;;;4986118;28;20037;-67
2024/01/22 03:24:17;;;;;;;3.17;1.77;;;10.20;96.10;;;;;;4995513;28;20033;-65
2024/01/22 03:26:42;;;;;;;2.58;1.90;;;10.20;96.30;;;;;;4993703;28;20029;-66
2024/01/22 03:29:08;;;;;;;2.75;1.90;;;10.30;96.50;;;;;;4993296;28;20069;-66
2024/01/22 03:31:34;;;;;;;4.60;2.03;;;10.30;96.70;;;;;;4988655;28;20038;-68
2024/01/22 03:34:00;;;;;;;3.35;2.10;;;10.30;96.80;;;;;;4993176;28;20065;-70
2024/01/22 03:36:25;;;;;;;3.88;1.77;;;10.30;96.90;;;;;;4995886;28;20057;-71
2024/01/22 03:38:51;;;;;;;2.08;1.65;;;10.30;96.80;;;;;;4995834;28;20029;-68
2024/01/22 03:41:17;;;;;;;3.03;2.30;;;10.40;96.80;;;;;;4998627;28;20105;-68
2024/01/22 03:43:46;;;;;;;2.78;1.80;;;10.30;96.90;;;;;;4992124;28;20532;-66
2024/01/22 03:46:12;;;;;;;3.03;1.90;;;10.40;96.90;;;;;;4990304;28;20018;-65
2024/01/22 03:48:39;;;;;;;2.83;2.20;;;10.40;97.00;;;;;;4986140;28;20117;-65
2024/01/22 03:51:05;;;;;;;2.95;1.52;;;10.50;96.90;;;;;;4991539;28;20025;-66
2024/01/22 03:53:30;;;;;;;4.15;1.67;;;10.50;96.90;;;;;;4996984;28;20033;-65
2024/01/22 03:55:56;;;;;;;1.92;1.40;;;10.50;97.00;;;;;;4999017;28;20028;-66
2024/01/22 03:58:21;;;;;;;2.28;1.52;;;10.40;97.20;;;;;;4996245;28;20030;-65
2024/01/22 04:00:47;;;;;;;2.28;1.70;;;10.40;97.30;;;;;;4994545;28;20480;-66
2024/01/22 04:03:13;;;;;;;2.60;1.90;;;10.40;97.50;;;;;;4997335;28;20026;-67
2024/01/22 04:05:38;;;;;;;3.10;1.90;;;10.30;97.90;;;;;;4993474;28;20036;-66
2024/01/22 04:08:04;;;;;;;2.83;1.45;;;10.30;98.30;;;;;;4991532;28;20377;-67
2024/01/22 04:10:30;;;;;;;1.95;1.50;;;10.30;98.60;;;;;;4999329;28;20196;-66
2024/01/22 04:12:56;;;;;;;3.60;1.30;;;10.30;98.90;;;;;;4994865;28;20097;-66
2024/01/22 04:15:22;;;;;;;1.55;1.40;;;10.30;99.00;;;;;;5000431;28;20030;-66
2024/01/22 04:17:48;;;;;;;1.85;1.65;;;10.30;99.30;;;;;;4996515;28;20030;-67
2024/01/22 04:20:13;;;;;;;2.03;1.50;;;10.20;99.90;;;;;;5002363;28;20037;-67
2024/01/22 04:22:39;;;;;;;2.97;1.58;;;10.30;99.90;;;;;;4996802;28;20053;-68
2024/01/22 04:25:05;;;;;;;2.55;1.40;;;10.30;99.90;;;;;;4994060;28;20044;-67
2024/01/22 04:27:30;;;;;;;3.20;2.17;;;10.30;99.90;;;;;;5003508;28;20033;-67
2024/01/22 04:29:56;;;;;;;2.25;1.33;;;10.30;99.90;;;;;;4994703;28;20093;-67
2024/01/22 04:32:22;;;;;;;3.33;1.50;;;10.30;99.90;;;;;;4992783;28;20034;-67
2024/01/22 04:34:48;;;;;;;2.33;1.35;;;10.30;99.90;;;;;;4995649;28;20109;-67
2024/01/22 04:37:14;;;;;;;1.95;1.55;;;10.40;99.90;;;;;;4997243;28;20472;-67
2024/01/22 04:39:40;;;;;;;4.15;1.80;;;10.40;99.90;;;;;;4998064;28;20038;-68
2024/01/22 04:42:06;;;;;;;3.15;1.63;;;10.40;99.90;;;;;;4998350;28;20498;-68
2024/01/22 04:44:31;;;;;;;2.40;1.25;;;10.50;99.90;;;;;;4995222;28;20025;-67
2024/01/22 04:46:57;;;;;;;2.30;1.30;;;10.50;99.90;;;;;;4998927;28;20038;-68
2024/01/22 04:49:23;;;;;;;2.10;1.20;;;10.50;99.90;;;;;;4994446;28;20500;-69
2024/01/22 04:51:49;;;;;;;1.13;1.02;;;10.50;99.90;;;;;;4988578;28;20027;-68
2024/01/22 04:54:14;;;;;;;1.30;1.10;;;10.60;99.90;;;;;;4990343;28;20034;-68
2024/01/22 04:56:47;;;;;;;2.17;1.30;;;10.60;99.90;;;;;;4996166;28;20029;-67
2024/01/22 04:59:13;;;;;;;1.25;1.13;;;10.70;99.90;;;;;;4992633;28;20085;-67
2024/01/22 05:01:39;;;;;;;1.20;1.10;;;10.70;99.90;;;;;;4991892;28;20404;-67
2024/01/22 05:04:05;;;;;;;1.75;1.20;;;10.80;99.90;;;;;;4993731;28;20664;-65
2024/01/22 05:06:31;;;;;;;1.63;1.20;;;10.80;99.90;;;;;;4993732;28;20105;-65
2024/01/22 05:08:57;;;;;;;1.80;1.65;;;10.80;99.90;;;;;;4998759;28;20064;-66
2024/01/22 05:11:22;;;;;;;1.90;1.45;;;10.80;99.90;;;;;;4990125;28;20061;-65
2024/01/22 05:13:52;;;;;;;2.72;1.48;;;10.80;99.90;;;;;;4990425;28;20062;-66
2024/01/22 05:16:19;;;;;;;1.98;1.35;;;10.80;99.90;;;;;;4989566;28;20081;-65
2024/01/22 05:18:46;;;;;;;1.10;1.00;;;10.80;99.90;;;;;;4990070;28;20385;-65
2024/01/22 05:21:12;;;;;;;2.35;1.20;;;10.80;99.90;;;;;;4993668;28;20018;-65
2024/01/22 05:23:39;;;;;;;3.03;1.30;;;10.80;99.90;;;;;;4994088;28;20032;-67
2024/01/22 05:26:05;;;;;;;1.67;1.10;;;10.80;99.90;;;;;;4992038;28;20065;-64
2024/01/22 05:28:31;;;;;;;2.10;1.20;;;10.90;99.90;;;;;;4992319;28;20018;-65
2024/01/22 05:30:57;;;;;;;3.58;1.30;;;10.90;99.90;;;;;;4993342;28;20027;-65
2024/01/22 05:33:23;;;;;;;1.70;1.10;;;10.90;99.90;;;;;;4988661;28;20182;-64
2024/01/22 05:35:48;;;;;;;1.42;1.05;;;11.00;99.90;;;;;;4996539;28;20034;-67
2024/01/22 05:38:14;;;;;;;1.80;1.20;;;11.00;99.90;;;;;;4989785;28;20026;-67
2024/01/22 05:40:40;;;;;;;1.30;0.90;;;11.10;99.90;;;;;;4990230;28;20041;-66
2024/01/22 05:43:05;;;;;;;1.42;1.10;;;11.10;99.90;;;;;;4986661;28;20022;-66
2024/01/22 05:45:31;;;;;;;1.67;1.00;;;11.10;99.90;;;;;;4992807;28;20033;-66
2024/01/22 05:47:57;;;;;;;1.10;1.00;;;11.10;99.90;;;;;;4996555;28;20036;-65
2024/01/22 05:50:22;;;;;;;2.17;1.10;;;11.10;99.90;;;;;;4999409;28;20022;-66
2024/01/22 05:52:48;;;;;;;2.25;1.10;;;11.20;99.90;;;;;;4995039;28;20041;-66
2024/01/22 05:55:13;;;;;;;2.58;1.02;;;11.20;99.90;;;;;;4992571;28;20033;-66
2024/01/22 05:57:39;;;;;;;2.17;1.00;;;11.30;99.90;;;;;;4988727;28;20026;-66
2024/01/22 06:00:09;;;;;;;2.20;1.10;;;11.30;99.90;;;;;;4991987;28;20041;-67
2024/01/22 06:02:35;;;;;;;1.35;0.90;;;11.30;99.90;;;;;;4993058;28;20076;-67
2024/01/22 06:05:01;;;;;;;1.20;0.70;;;11.40;99.90;;;;;;4997181;28;20049;-67
2024/01/22 06:07:27;;;;;;;1.80;1.17;;;11.40;99.90;;;;;;4994812;28;20088;-67
2024/01/22 06:09:53;;;;;;;2.13;1.05;;;11.50;99.90;;;;;;4991028;28;20484;-67
2024/01/22 06:12:18;;;;;;;1.90;0.82;;;11.50;99.90;;;;;;4989969;28;20022;-68
2024/01/22 06:14:44;;;;;;;1.27;0.90;;;11.50;99.90;;;;;;4987084;28;20484;-67
2024/01/22 06:17:09;;;;;;;2.33;1.00;;;11.60;99.90;;;;;;4988202;28;20038;-68
2024/01/22 06:19:35;;;;;;;1.75;0.98;;;11.70;99.90;;;;;;4994093;28;20368;-68
2024/01/22 06:22:01;;;;;;;1.23;1.10;;;11.70;99.90;;;;;;4992115;28;20049;-68
2024/01/22 06:24:27;;;;;;;1.67;1.00;;;11.80;99.90;;;;;;4991366;28;20029;-68
2024/01/22 06:26:52;;;;;;;1.25;0.70;;;11.80;99.90;;;;;;4997508;28;20029;-67
2024/01/22 06:29:18;;;;;;;1.20;0.70;;;11.90;99.90;;;;;;4985980;28;20033;-67
2024/01/22 06:31:44;;;;;;;2.20;0.82;;;11.90;99.90;;;;;;4990722;28;20045;-67
2024/01/22 06:34:11;;;;;;;1.60;0.80;;;11.90;99.90;;;;;;4998372;28;20033;-68
2024/01/22 06:36:40;;;;;;;1.52;0.70;;;12.00;99.90;;;;;;4999502;28;20036;-68
2024/01/22 06:39:08;;;;;;;1.33;0.80;;;12.00;99.90;;;;;;4990777;28;20062;-67
2024/01/22 06:41:34;;;;;;;2.35;0.70;;;12.10;99.90;;;;;;4984488;28;20018;-68
2024/01/22 06:43:59;;;;;;;1.35;0.80;;;12.10;99.80;;;;;;4987434;28;20030;-68
2024/01/22 06:46:25;;;;;;;1.08;0.57;;;12.10;99.60;;;;;;4990688;28;20033;-68
2024/01/22 06:48:50;;;;;;;2.15;0.68;;;12.10;99.60;;;;;;4989493;28;20041;-69
2024/01/22 06:51:16;;;;;;;1.98;0.85;;;12.10;99.60;;;;;;4992248;28;20062;-68
2024/01/22 06:53:42;;;;;;;1.42;0.70;;;12.10;99.70;;;;;;4989901;28;20046;-68
2024/01/22 06:56:08;;;;;;;1.65;0.85;;;12.10;99.70;;;;;;4988198;28;20045;-69
2024/01/22 06:58:34;;;;;;;1.23;0.80;;;12.10;99.80;;;;;;4989577;28;20026;-69
2024/01/22 07:00:59;;;;;;;2.92;0.88;;;12.10;99.80;;;;;;4991090;28;20477;-68
2024/01/22 07:03:26;;;;;;;1.52;0.75;;;12.00;99.90;;;;;;4990418;28;20064;-69
2024/01/22 07:05:52;;;;;;;0.70;0.55;;;12.00;99.90;;;;;;4987530;28;20033;-68
2024/01/22 07:08:18;;;;;;;0.50;0.50;;;12.10;99.90;;;;;;4996763;28;20018;-69
2024/01/22 07:10:44;;;;;;;1.77;0.60;;;12.10;99.80;;;;;;4991071;28;20556;-69
2024/01/22 07:13:09;;;;;;;2.55;0.80;;;12.00;99.70;;;;;;4989177;28;20035;-68
2024/01/22 07:15:35;;;;;;;2.70;0.93;;;12.00;99.80;;;;;;5000282;28;20409;-68
2024/01/22 07:18:00;;;;;;;1.48;0.77;;;12.00;99.90;;;;;;4999493;28;20026;-69
2024/01/22 07:20:28;;;;;;;2.05;0.73;;;12.00;99.90;;;;;;4995357;28;20036;-69
2024/01/22 07:22:54;;;;;;;2.25;0.82;;;12.00;99.90;;;;;;4998299;28;20777;-68
2024/01/22 07:25:19;;;;;;;1.83;0.80;;;12.00;99.80;;;;;;4994091;28;20048;-67
2024/01/22 07:27:45;;;;;;;1.33;0.70;;;12.10;99.80;;;;;;4988347;28;20084;-70
2024/01/22 07:30:12;;;;;;;3.03;0.80;;;12.10;99.80;;;;;;4986721;28;20030;-69
2024/01/22 07:32:40;;;;;;;1.75;0.85;;;12.10;99.70;;;;;;4992211;28;20035;-69
2024/01/22 07:35:11;;;;;;;2.72;0.80;;;12.10;99.60;;;;;;4983788;28;20041;-67
2024/01/22 07:37:38;;;;;;;1.13;0.70;;;12.10;99.50;;;;;;4993341;28;20041;-67
2024/01/22 07:40:05;;;;;;;3.40;1.00;;;12.10;99.40;;;;;;4988739;28;20030;-69
2024/01/22 07:42:34;;;;;;;4.28;1.10;;;12.10;99.30;;;;;;4991969;28;20038;-69
2024/01/22 07:45:01;;;;;;;3.65;1.30;;;12.20;99.50;;;;;;4992633;28;20046;-68
2024/01/22 07:47:29;;;;;;;4.38;1.30;;;12.10;99.10;;;;;;4991289;28;20023;-68
2024/01/22 07:49:55;;;;;;;4.70;1.00;;;12.20;99.00;;;;;;4990167;28;20033;-69
2024/01/22 07:52:22;;;;;;;7.75;1.40;;;12.20;98.90;;;;;;4986062;28;20022;-69
2024/01/22 07:54:48;;;;;;;3.40;1.20;;;12.20;98.80;;;;;;4990400;28;20041;-69
2024/01/22 07:57:14;;;;;;;4.22;1.20;;;12.20;98.70;;;;;;4987931;28;20037;-67
2024/01/22 07:59:41;;;;;;;3.33;1.27;;;12.20;98.60;;;;;;4985656;28;20058;-67
2024/01/22 08:02:07;;;;;;;3.38;1.42;;;12.20;98.60;;;;;;4984532;28;20022;-67
2024/01/22 08:04:33;;;;;;;4.00;1.27;;;12.20;98.40;;;;;;4986110;28;20030;-68
2024/01/22 08:07:00;;;;;;;2.22;1.05;;;12.30;98.40;;;;;;4987140;28;20117;-68
2024/01/22 08:09:26;;;;;;;5.30;1.27;;;12.20;98.40;;;;;;4987494;28;20088;-68
2024/01/22 08:11:52;;;;;;;4.20;1.20;;;12.20;98.30;;;;;;4987039;28;20030;-68
2024/01/22 08:14:18;;;;;;;4.97;1.65;;;12.20;98.20;;;;;;4988030;28;20110;-68
2024/01/22 08:16:45;;;;;;;2.90;1.15;;;12.20;98.20;;;;;;4988320;28;20077;-68
2024/01/22 08:19:11;;;;;;;3.28;1.17;;;12.20;98.20;;;;;;4990480;28;20018;-68
2024/01/22 08:21:37;;;;;;;4.90;1.50;;;12.30;98.10;;;;;;4988348;28;20334;-68
2024/01/22 08:24:03;;;;;;;3.13;1.08;;;12.20;98.00;;;;;;4989332;28;20525;-69
2024/01/22 08:26:29;;;;;;;5.28;1.60;;;12.20;98.10;;;;;;4990931;28;20088;-67
2024/01/22 08:28:54;;;;;;;3.45;1.10;;;12.20;98.10;;;;;;4988070;28;20429;-67
2024/01/22 08:31:20;;;;;;;4.68;1.30;;;12.20;98.10;;;;;;4987787;28;20058;-68
2024/01/22 08:33:45;;;;;;;5.55;1.30;;;12.20;98.20;;;;;;4988013;28;20022;-68
2024/01/22 08:36:11;;;;;;;3.83;1.08;;;12.20;98.30;;;;;;4987825;28;20030;-67
2024/01/22 08:38:37;;;;;;;2.88;1.00;;;12.20;98.30;;;;;;4991868;28;20481;-67
2024/01/22 08:41:08;;;;;;;5.43;1.60;;;12.10;98.30;;;;;;4987231;28;20042;-68
2024/01/22 08:43:34;;;;;;;3.35;1.50;;;12.10;98.30;;;;;;4991659;28;20451;-68
2024/01/22 08:45:59;;;;;;;4.13;0.98;;;12.10;98.50;;;;;;4996231;28;20540;-68
2024/01/22 08:48:25;;;;;;;5.00;1.50;;;12.10;98.50;;;;;;4995267;28;20068;-68
2024/01/22 08:50:51;;;;;;;4.57;1.25;;;12.10;98.90;;;;;;4987191;28;20026;-68
2024/01/22 08:53:16;;;;;;;3.63;1.30;;;12.10;98.70;;;;;;4980574;28;20042;-69
2024/01/22 08:55:42;;;;;;;4.53;1.30;;;12.10;98.70;;;;;;4987578;28;20113;-68
2024/01/22 08:58:09;;;;;;;3.85;1.08;;;12.10;98.80;;;;;;4995885;28;20042;-69
2024/01/22 09:00:35;;;;;;;5.45;1.20;;;12.10;98.80;;;;;;4977020;28;20034;-69
2024/01/22 09:03:00;;;;;;;3.28;1.42;;;12.10;98.80;;;;;;4984359;28;20146;-69
2024/01/22 09:05:26;;;;;;;2.53;1.10;;;12.20;98.80;;;;;;4985089;28;20041;-69
2024/01/22 09:07:52;;;;;;;6.45;1.40;;;12.20;98.80;;;;;;4991290;28;20025;-68
2024/01/22 09:10:18;;;;;;;5.90;1.73;;;12.20;98.80;;;;;;4989142;28;20034;-68
2024/01/22 09:12:45;;;;;;;5.75;1.58;;;12.20;98.80;;;;;;4990259;28;20038;-68
2024/01/22 09:15:10;;;;;;;4.95;1.70;;;12.20;98.80;;;;;;4986505;28;20110;-66
2024/01/22 09:17:37;;;;;;;5.90;2.13;;;12.20;98.80;;;;;;4983401;28;20487;-69
2024/01/22 09:20:04;;;;;;;7.28;1.60;;;12.20;98.90;;;;;;4984660;28;20034;-69
2024/01/22 09:22:29;;;;;;;6.72;1.80;;;12.10;98.80;;;;;;4987317;28;20105;-68
2024/01/22 09:24:55;;;;;;;3.60;1.40;;;12.10;98.90;;;;;;4989878;28;20509;-69
2024/01/22 09:27:21;;;;;;;3.50;1.45;;;12.10;98.80;;;;;;4990161;28;20022;-69
2024/01/22 09:29:46;;;;;;;4.35;1.50;;;12.20;98.80;;;;;;4988731;28;20036;-70
2024/01/22 09:32:13;;;;;;;5.25;1.80;;;12.20;98.80;;;;;;4979260;28;20489;-68
2024/01/22 09:34:39;;;;;;;6.03;1.90;;;12.10;99.00;;;;;;4989293;28;20049;-69
2024/01/22 09:37:05;;;;;;;6.00;1.35;;;12.10;99.20;;;;;;4988234;28;20501;-68
2024/01/22 09:39:32;;;;;;;3.92;1.55;;;12.10;99.30;;;;;;4980463;28;20041;-68
2024/01/22 09:42:01;;;;;;;4.15;1.67;;;12.10;99.50;;;;;;4984964;28;20520;-68
2024/01/22 09:44:27;;;;;;;3.25;1.23;;;12.00;99.20;;;;;;4984903;28;20385;-68
2024/01/22 09:46:53;;;;;;;2.65;0.90;;;11.90;99.30;;;;;;4989053;28;20065;-68
2024/01/22 09:49:19;;;;;;;4.57;1.50;;;11.90;99.30;;;;;;4987960;28;20461;-67
2024/01/22 09:51:45;;;;;;;4.22;1.52;;;11.90;99.30;;;;;;4989938;28;20041;-67
2024/01/22 09:54:23;;;;;;;3.42;1.20;;;11.80;99.30;;;;;;4985804;28;20109;-68
2024/01/22 09:56:54;;;;;;;3.63;1.33;;;11.80;99.30;;;;;;4984423;28;20118;-68
2024/01/22 09:59:20;;;;;;;;;;;11.70;99.20;;;;;;4988950;28;20030;-69
2024/01/22 10:01:51;;;;;;;8.75;1.23;;;11.60;99.10;;;;;;4986031;28;20284;-68
2024/01/22 10:04:17;;;;;;;6.10;1.25;;;11.50;99.10;;;;;;4988894;28;20096;-68
2024/01/22 10:06:45;;;;;;;3.60;1.20;;;11.40;99.20;;;;;;4989845;28;20022;-69
2024/01/22 10:09:14;;;;;;;7.22;1.33;;;11.30;99.20;;;;;;4988446;28;20080;-67
2024/01/22 10:11:41;;;;;;;3.25;0.85;;;11.20;99.20;;;;;;4990963;28;20218;-69
2024/01/22 10:14:06;;;;;;;4.38;1.10;;;11.20;99.20;;;;;;4988866;28;20023;-68
2024/01/22 10:16:32;;;;;;;3.55;1.00;;;11.20;99.20;;;;;;4987580;28;20034;-65
2024/01/22 10:19:06;;;;;;;4.22;1.38;;;11.10;99.20;;;;;;4997832;28;20035;-68
2024/01/22 10:21:32;;;;;;;5.35;1.30;;;11.10;99.20;;;;;;4980411;28;20026;-67
2024/01/22 10:24:03;;;;;;;2.45;0.90;;;11.10;99.30;;;;;;4980355;28;20019;-67
2024/01/22 10:26:30;;;;;;;6.28;1.10;;;11.10;99.30;;;;;;4986849;28;20031;-68
2024/01/22 10:29:13;;;;;;;2.85;0.90;;;11.00;99.20;;;;;;4981205;28;20058;-68
2024/01/22 10:31:58;;;;;;;3.72;1.20;;;11.10;99.10;;;;;;4984855;28;20476;-69
2024/01/22 10:34:42;;;;;;;4.88;1.17;;;11.10;99.00;;;;;;4985364;28;20521;-69
2024/01/22 10:37:09;;;;;;;3.80;1.10;;;11.10;99.00;;;;;;4981496;28;20086;-68
2024/01/22 10:39:48;;;;;;;1.55;0.80;;;11.10;98.90;;;;;;4982276;28;20026;-68
2024/01/22 10:42:15;;;;;;;4.45;1.35;;;11.20;98.80;;;;;;4973254;28;20032;-69
2024/01/22 10:44:47;;;;;;;4.53;1.00;;;11.20;98.60;;;;;;4983357;28;20085;-67
2024/01/22 10:47:14;;;;;;;2.92;1.10;;;11.20;98.60;;;;;;4986092;28;20112;-67
2024/01/22 10:49:43;;;;;;;6.07;1.20;;;11.20;98.40;;;;;;4985701;28;20477;-69
2024/01/22 10:52:08;;;;;;;2.58;0.90;;;11.20;98.30;;;;;;4982001;28;20030;-68
2024/01/22 10:54:35;;;;;;;4.55;1.30;;;11.20;98.30;;;;;;4985037;28;20489;-68
2024/01/22 10:57:24;;;;;;;4.45;1.60;;;11.10;98.30;;;;;;4985557;28;20026;-68
2024/01/22 10:59:52;;;;;;;4.85;1.25;;;11.10;98.20;;;;;;5001643;28;20113;-69
2024/01/22 11:02:22;;;;;;;5.40;1.58;;;11.00;98.10;;;;;;4984294;28;20026;-67
2024/01/22 11:04:52;;;;;;;3.10;1.30;;;11.00;98.30;;;;;;4980907;28;20461;-68
2024/01/22 11:07:23;;;;;;;4.50;1.70;;;11.00;98.30;;;;;;4979322;28;20023;-67
2024/01/22 11:09:50;;;;;;;4.45;1.27;;;11.00;98.30;;;;;;4987075;28;20036;-68
2024/01/22 11:12:21;;;;;;;4.82;1.30;;;11.00;98.20;;;;;;4984673;28;20444;-67
2024/01/22 11:14:47;;;;;;;6.87;1.57;;;11.00;98.20;;;;;;4983575;28;20026;-68
2024/01/22 11:17:15;;;;;;;3.53;1.13;;;11.00;98.20;;;;;;4985874;28;20030;-69
2024/01/22 11:19:40;;;;;;;5.03;1.60;;;11.00;98.10;;;;;;4986901;28;20087;-68
2024/01/22 11:22:15;;;;;;;5.10;1.60;;;11.10;97.90;;;;;;4984109;28;20026;-66
2024/01/22 11:24:41;;;;;;;8.40;1.60;;;11.10;97.90;;;;;;4984838;28;20030;-68
2024/01/22 11:27:07;;;;;;;6.82;1.40;;;11.00;97.90;;;;;;4985333;28;20037;-68
2024/01/22 11:29:33;;;;;;;4.80;1.50;;;11.00;97.80;;;;;;4979767;28;20109;-67
2024/01/22 11:32:26;;;;;;;7.38;1.67;;;11.10;97.80;;;;;;4987293;28;20093;-68
2024/01/22 11:34:53;;;;;;;7.22;1.63;;;11.10;97.70;;;;;;4983925;28;20034;-68
2024/01/22 11:37:35;;;;;;;10.20;2.50;;;11.10;97.50;;;;;;4981823;28;20397;-68
2024/01/22 11:40:02;;;;;;;12.90;2.08;;;11.10;97.50;;;;;;4980897;28;20027;-67
2024/01/22 11:42:30;;;;;;;13.95;2.38;;;11.10;97.30;;;;;;4980792;28;20049;-68
2024/01/22 11:44:58;;;;;;;12.00;2.63;;;11.20;97.10;;;;;;4984991;28;20027;-68
2024/01/22 11:47:24;;;;;;;5.80;1.55;;;11.20;96.90;;;;;;4985370;28;20027;-68
2024/01/22 11:50:00;;;;;;;4.65;1.40;;;11.30;96.90;;;;;;4983407;28;20651;-69
2024/01/22 11:52:26;;;;;;;14.25;2.20;;;11.30;96.80;;;;;;4975913;28;20054;-68
2024/01/22 11:54:56;;;;;;;9.05;2.00;;;11.40;96.70;;;;;;4979311;28;20031;-67
2024/01/22 11:57:23;;;;;;;8.52;1.98;;;11.40;96.70;;;;;;4984857;28;20113;-67
2024/01/22 12:00:12;;;;;;;9.82;2.50;;;11.40;96.10;;;;;;4979740;28;20065;-68
2024/01/22 12:02:44;;;;;;;10.25;1.92;;;11.50;96.00;;;;;;4983586;28;20022;-69
2024/01/22 12:05:17;;;;;;;9.95;1.85;;;11.50;95.80;;;;;;4979706;28;20042;-69
2024/01/22 12:07:47;;;;;;;10.63;2.25;;;11.50;95.60;;;;;;4980237;28;20021;-68
2024/01/22 12:10:29;;;;;;;13.13;2.30;;;11.50;95.30;;;;;;4977852;28;20058;-68
2024/01/22 12:12:56;;;;;;;11.75;2.70;;;11.50;95.10;;;;;;4980622;28;20214;-70
2024/01/22 12:15:24;;;;;;;10.75;2.10;;;11.60;95.00;;;;;;4977433;28;20028;-69
2024/01/22 12:17:50;;;;;;;13.48;2.47;;;11.60;94.90;;;;;;4985000;28;20092;-69
2024/01/22 12:20:17;;;;;;;11.05;1.85;;;11.80;94.70;;;;;;4979493;28;20033;-68
2024/01/22 12:22:43;;;;;;;8.43;1.70;;;12.10;94.30;;;;;;4980657;28;20031;-68
2024/01/22 12:25:11;;;;;;;9.52;2.35;;;12.90;93.40;;;;;;4986049;28;20125;-69
2024/01/22 12:27:37;;;;;;;11.70;3.10;;;12.80;91.70;;;;;;4981062;28;21025;-70
2024/01/22 12:30:03;;;;;;;11.77;2.50;;;12.40;91.70;;;;;;4979823;28;20109;-68
2024/01/22 12:32:29;;;;;;;12.48;2.00;;;12.20;92.30;;;;;;4990642;28;20030;-69
2024/01/22 12:34:56;;;;;;;11.52;2.65;;;12.10;92.30;;;;;;4986520;28;20026;-69
2024/01/22 12:37:23;;;;;;;11.40;2.42;;;12.10;92.00;;;;;;4986565;28;20110;-69
2024/01/22 12:39:49;;;;;;;13.68;2.22;;;12.30;92.10;;;;;;4989528;28;20022;-69
2024/01/22 12:42:18;;;;;;;12.75;2.50;;;12.40;92.10;;;;;;4990596;28;20014;-68
2024/01/22 12:45:01;;;;;;;11.43;2.55;;;12.30;91.60;;;;;;4987396;28;20019;-68
2024/01/22 12:47:28;;;;;;;13.60;2.22;;;12.10;91.60;;;;;;4989575;28;20027;-68